Time;durP1;ratioP1;P1;durP2;ratioP2;P2;SDS_P1;SDS_P2;PMS_P1;PMS_P2;Temp;Humidity;BMP_temperature;BMP_pressure;BME280_temperature;BME280_humidity;BME280_pressure;Samples;Min_cycle;Max_cycle;Signal;HPM_P1;HPM_P2
2022/12/08 00:01:08;;;;;;;20.13;9.18;;;1.00;99.90;;;;;;5074637;28;20024;-63
2022/12/08 00:03:35;;;;;;;18.85;9.35;;;1.00;99.90;;;;;;5060818;28;20025;-63
2022/12/08 00:11:32;;;;;;;18.38;8.57;;;1.10;99.90;;;;;;5068739;28;20035;-61
2022/12/08 00:13:58;;;;;;;18.98;9.60;;;1.10;99.90;;;;;;5071841;28;20047;-63
2022/12/08 00:16:24;;;;;;;16.23;8.10;;;1.10;99.90;;;;;;5072459;28;20079;-61
2022/12/08 00:18:50;;;;;;;12.35;7.95;;;1.10;99.90;;;;;;5071445;28;20063;-62
2022/12/08 00:21:16;;;;;;;16.52;9.10;;;1.20;99.90;;;;;;5074535;28;20418;-61
2022/12/08 00:23:42;;;;;;;17.25;8.77;;;1.20;99.90;;;;;;5072943;28;20025;-62
2022/12/08 00:26:08;;;;;;;20.08;8.73;;;1.20;99.90;;;;;;5075855;28;20471;-62
2022/12/08 00:28:34;;;;;;;18.63;8.85;;;1.20;99.90;;;;;;5064994;28;20067;-63
2022/12/08 00:31:06;;;;;;;13.10;8.18;;;1.20;99.90;;;;;;5072619;28;20141;-61
2022/12/08 00:33:32;;;;;;;14.85;8.88;;;1.20;99.90;;;;;;5071204;28;20456;-61
2022/12/08 00:35:57;;;;;;;18.95;8.80;;;1.20;99.90;;;;;;5076440;28;20033;-61
2022/12/08 00:38:23;;;;;;;15.38;8.20;;;1.20;99.90;;;;;;5072127;28;20116;-62
2022/12/08 00:40:49;;;;;;;14.13;8.25;;;1.20;99.90;;;;;;5074967;28;20103;-61
2022/12/08 00:43:15;;;;;;;13.82;8.13;;;1.20;99.90;;;;;;5072629;28;20043;-62
2022/12/08 00:45:41;;;;;;;19.30;8.48;;;1.20;99.90;;;;;;5075949;28;20023;-62
2022/12/08 00:48:07;;;;;;;17.63;9.15;;;1.20;99.90;;;;;;5078735;28;20391;-61
2022/12/08 00:50:33;;;;;;;18.30;8.90;;;1.20;99.90;;;;;;5069933;28;20033;-61
2022/12/08 00:52:59;;;;;;;15.43;9.07;;;1.20;99.90;;;;;;5062305;28;20025;-61
2022/12/08 00:55:25;;;;;;;19.45;8.35;;;1.20;99.90;;;;;;5077710;28;20475;-61
2022/12/08 00:57:50;;;;;;;17.23;8.73;;;1.20;99.90;;;;;;5068536;28;20020;-61
2022/12/08 01:00:17;;;;;;;17.42;9.43;;;1.10;99.90;;;;;;5071712;28;20472;-62
2022/12/08 01:02:43;;;;;;;16.05;8.05;;;1.10;99.90;;;;;;5067539;28;20024;-61
2022/12/08 01:05:09;;;;;;;19.85;8.23;;;1.10;99.90;;;;;;5076796;28;20088;-62
2022/12/08 01:07:34;;;;;;;12.52;7.60;;;1.10;99.90;;;;;;5074064;28;20031;-61
2022/12/08 01:10:00;;;;;;;18.40;8.75;;;1.10;99.90;;;;;;5070171;28;20056;-61
2022/12/08 01:12:29;;;;;;;14.02;8.90;;;1.00;99.90;;;;;;5064421;28;20031;-62
2022/12/08 01:14:55;;;;;;;16.38;8.27;;;1.00;99.90;;;;;;5071785;28;20016;-61
2022/12/08 01:17:21;;;;;;;17.80;8.35;;;1.00;99.90;;;;;;5078436;28;20119;-60
2022/12/08 01:19:47;;;;;;;14.73;7.88;;;0.90;99.90;;;;;;5076641;28;20024;-62
2022/12/08 01:22:13;;;;;;;15.95;8.50;;;0.80;99.90;;;;;;5066495;28;20138;-62
2022/12/08 01:24:38;;;;;;;16.15;8.35;;;0.80;99.90;;;;;;5077937;28;20031;-62
2022/12/08 01:27:04;;;;;;;12.57;8.35;;;0.80;99.90;;;;;;5071519;28;20082;-62
2022/12/08 01:29:31;;;;;;;18.08;8.77;;;0.80;99.90;;;;;;5071769;28;20036;-62
2022/12/08 01:31:56;;;;;;;17.85;8.27;;;0.80;99.90;;;;;;5069087;28;20513;-62
2022/12/08 01:34:22;;;;;;;20.85;8.48;;;0.80;99.90;;;;;;5072592;28;20094;-62
2022/12/08 01:36:48;;;;;;;15.02;8.48;;;0.70;99.90;;;;;;5083895;28;20047;-62
2022/12/08 01:39:16;;;;;;;14.98;8.10;;;0.60;99.90;;;;;;5070243;28;20118;-62
2022/12/08 01:41:43;;;;;;;17.13;8.48;;;0.60;99.90;;;;;;5072267;28;20064;-61
2022/12/08 01:44:09;;;;;;;16.02;8.05;;;0.50;99.90;;;;;;5073097;28;20113;-61
2022/12/08 01:46:38;;;;;;;15.32;8.75;;;0.40;99.90;;;;;;5060180;28;20048;-62
2022/12/08 01:49:06;;;;;;;19.00;9.13;;;0.30;99.90;;;;;;5065373;28;20032;-63
2022/12/08 01:51:37;;;;;;;16.73;9.57;;;0.20;99.90;;;;;;5068791;28;20503;-62
2022/12/08 01:54:05;;;;;;;18.30;10.00;;;0.10;99.90;;;;;;5079930;28;20042;-61
2022/12/08 01:56:41;;;;;;;18.05;9.38;;;0.10;99.90;;;;;;5073316;28;20110;-62
2022/12/08 01:59:09;;;;;;;13.05;8.40;;;0.00;99.90;;;;;;5072227;28;20031;-61
2022/12/08 02:01:35;;;;;;;16.75;9.68;;;-0.10;99.90;;;;;;5062401;28;20017;-61
2022/12/08 02:04:03;;;;;;;13.52;8.65;;;-0.10;99.90;;;;;;5073059;28;20074;-61
2022/12/08 02:06:40;;;;;;;18.35;9.20;;;-0.30;99.90;;;;;;5064890;28;20365;-62
2022/12/08 02:09:07;;;;;;;18.77;9.30;;;-0.30;99.90;;;;;;5067993;28;20029;-62
2022/12/08 02:11:32;;;;;;;16.10;8.43;;;-0.40;99.90;;;;;;5064328;28;20083;-63
2022/12/08 02:14:00;;;;;;;16.70;8.68;;;-0.40;99.90;;;;;;5073439;28;20024;-62
2022/12/08 02:16:51;;;;;;;17.40;9.63;;;-0.40;99.90;;;;;;5068772;28;20036;-61
2022/12/08 02:19:29;;;;;;;13.80;6.70;;;-0.40;99.90;;;;;;5035637;28;20060;-62
2022/12/08 02:22:22;;;;;;;22.15;9.02;;;-0.50;99.90;;;;;;5025665;28;20045;-62
2022/12/08 02:25:00;;;;;;;16.48;9.00;;;-0.50;99.90;;;;;;5021953;28;20064;-62
2022/12/08 02:27:32;;;;;;;15.75;8.60;;;-0.40;99.90;;;;;;5025689;28;20031;-61
2022/12/08 02:30:06;;;;;;;;;;;-0.40;99.90;;;;;;5029977;28;20030;-61
2022/12/08 02:32:34;;;;;;;15.63;8.75;;;-0.40;99.90;;;;;;5026625;28;19909;-62
2022/12/08 02:35:09;;;;;;;13.75;8.40;;;-0.40;99.90;;;;;;5028291;28;20032;-61
2022/12/08 02:37:45;;;;;;;16.58;9.05;;;-0.40;99.90;;;;;;5024582;28;20041;-61
2022/12/08 02:40:41;;;;;;;17.98;9.50;;;-0.40;99.90;;;;;;5024148;28;20025;-62
2022/12/08 02:43:16;;;;;;;15.10;8.40;;;-0.40;99.90;;;;;;5033304;28;20042;-62
2022/12/08 02:45:49;;;;;;;17.20;8.52;;;-0.40;99.90;;;;;;5026374;28;20481;-60
2022/12/08 02:48:15;;;;;;;18.67;9.27;;;-0.40;99.90;;;;;;5011602;28;20025;-62
2022/12/08 02:50:41;;;;;;;16.73;8.82;;;-0.40;99.90;;;;;;5026074;28;20048;-61
2022/12/08 02:53:08;;;;;;;21.88;8.93;;;-0.40;99.90;;;;;;5027801;28;20025;-61
2022/12/08 02:56:03;;;;;;;16.30;9.65;;;-0.50;99.90;;;;;;5037362;28;20044;-61
2022/12/08 02:58:44;;;;;;;20.67;8.85;;;-0.50;99.90;;;;;;5065772;28;20036;-61
2022/12/08 03:01:48;;;;;;;14.43;8.30;;;-0.50;99.90;;;;;;5068477;28;20029;-61
2022/12/08 03:04:25;;;;;;;16.17;9.45;;;-0.40;99.90;;;;;;5057899;28;20037;-62
2022/12/08 03:07:14;;;;;;;16.65;9.68;;;-0.50;99.90;;;;;;5066935;28;20373;-61
2022/12/08 03:09:55;;;;;;;19.52;9.57;;;-0.60;99.90;;;;;;5065033;28;20075;-61
2022/12/08 03:12:43;;;;;;;21.70;9.75;;;-0.60;99.90;;;;;;5063598;28;20024;-60
2022/12/08 03:15:13;;;;;;;20.50;9.25;;;-0.60;99.90;;;;;;5069508;28;20476;-61
2022/12/08 03:17:44;;;;;;;23.95;9.48;;;-0.60;99.90;;;;;;5073531;28;20439;-61
2022/12/08 03:20:15;;;;;;;18.13;8.90;;;-0.70;99.90;;;;;;5070322;28;20035;-62
2022/12/08 03:22:43;;;;;;;23.30;9.52;;;-0.70;99.90;;;;;;5067267;28;20063;-62
2022/12/08 03:25:12;;;;;;;15.40;9.23;;;-0.70;99.90;;;;;;5070151;28;20033;-62
2022/12/08 03:27:38;;;;;;;19.30;9.95;;;-0.70;99.90;;;;;;5067318;28;21085;-61
2022/12/08 03:30:05;;;;;;;19.77;9.05;;;-0.70;99.90;;;;;;5069701;28;20103;-61
2022/12/08 03:32:36;;;;;;;21.65;9.50;;;-0.80;99.90;;;;;;5066664;28;20027;-61
2022/12/08 03:35:10;;;;;;;12.77;7.30;;;-0.80;99.90;;;;;;5069982;28;20040;-61
2022/12/08 03:37:36;;;;;;;18.75;9.27;;;-0.90;99.90;;;;;;5065882;28;20131;-61
2022/12/08 03:40:05;;;;;;;15.00;8.90;;;-0.90;99.90;;;;;;5061513;28;20021;-62
2022/12/08 03:42:30;;;;;;;20.73;10.25;;;-0.90;99.90;;;;;;5066736;28;20029;-62
2022/12/08 03:44:56;;;;;;;17.92;9.68;;;-0.90;99.90;;;;;;5072309;28;20073;-61
2022/12/08 03:47:22;;;;;;;20.80;10.13;;;-1.00;99.90;;;;;;5067044;28;20033;-62
2022/12/08 03:49:48;;;;;;;17.08;9.68;;;-0.90;99.90;;;;;;5069081;28;20028;-61
2022/12/08 03:52:14;;;;;;;16.92;10.07;;;-0.90;99.90;;;;;;5072883;28;21723;-61
2022/12/08 03:54:39;;;;;;;16.10;8.88;;;-0.90;99.90;;;;;;5073445;28;20186;-61
2022/12/08 03:57:05;;;;;;;18.75;9.02;;;-0.90;99.90;;;;;;5072097;28;20551;-60
2022/12/08 03:59:31;;;;;;;17.48;9.48;;;-0.90;99.90;;;;;;5071025;28;20028;-62
2022/12/08 04:01:57;;;;;;;16.90;9.13;;;-0.90;99.90;;;;;;5072160;28;20025;-62
2022/12/08 04:04:22;;;;;;;19.42;10.70;;;-0.80;99.90;;;;;;5070282;28;20166;-62
2022/12/08 04:06:49;;;;;;;17.90;9.82;;;-0.90;99.90;;;;;;5072984;28;20033;-61
2022/12/08 04:09:15;;;;;;;18.40;10.05;;;-1.00;99.90;;;;;;5070107;28;20025;-62
2022/12/08 04:11:41;;;;;;;19.10;10.45;;;-1.10;99.90;;;;;;5074397;28;20029;-61
2022/12/08 04:14:07;;;;;;;19.48;9.93;;;-1.10;99.90;;;;;;5074814;28;20033;-60
2022/12/08 04:16:32;;;;;;;15.40;8.80;;;-1.10;99.90;;;;;;5071141;28;20120;-61
2022/12/08 04:18:58;;;;;;;22.40;9.95;;;-1.10;99.90;;;;;;5071437;28;20035;-61
2022/12/08 04:21:24;;;;;;;18.88;9.35;;;-1.10;99.90;;;;;;5062004;28;20039;-62
2022/12/08 04:23:50;;;;;;;24.42;9.63;;;-1.20;99.90;;;;;;5072771;28;20056;-61
2022/12/08 04:26:16;;;;;;;22.08;10.00;;;-1.30;99.90;;;;;;5072263;28;20056;-62
2022/12/08 04:28:42;;;;;;;19.15;9.73;;;-1.30;99.90;;;;;;5070771;28;20119;-62
2022/12/08 04:31:08;;;;;;;19.58;9.52;;;-1.20;99.90;;;;;;5071451;28;20136;-60
2022/12/08 04:33:34;;;;;;;19.27;9.25;;;-1.20;99.90;;;;;;5071986;28;20073;-61
2022/12/08 04:36:01;;;;;;;17.02;9.70;;;-1.10;99.90;;;;;;5080225;28;20491;-61
2022/12/08 04:38:27;;;;;;;17.38;9.85;;;-1.20;99.90;;;;;;5070069;28;20039;-62
2022/12/08 04:40:53;;;;;;;15.60;9.23;;;-1.10;99.90;;;;;;5069150;28;20387;-60
2022/12/08 04:43:19;;;;;;;19.75;9.75;;;-1.00;99.90;;;;;;5071209;28;20495;-60
2022/12/08 04:45:45;;;;;;;17.20;8.70;;;-0.90;99.90;;;;;;5065557;28;20071;-61
2022/12/08 04:48:12;;;;;;;15.60;9.15;;;-0.90;99.90;;;;;;5071798;28;20388;-61
2022/12/08 04:50:42;;;;;;;18.65;10.25;;;-0.90;99.90;;;;;;5070436;28;20032;-62
2022/12/08 04:53:09;;;;;;;16.70;9.52;;;-0.90;99.90;;;;;;5072107;28;20032;-61
2022/12/08 04:55:43;;;;;;;17.98;9.80;;;-0.90;99.90;;;;;;5069337;28;20033;-61
2022/12/08 04:58:15;;;;;;;19.55;9.60;;;-0.90;99.90;;;;;;5071463;28;20049;-61
2022/12/08 05:00:41;;;;;;;;;;;-1.00;99.90;;;;;;5069420;28;20034;-61
2022/12/08 05:03:08;;;;;;;13.70;8.38;;;-1.00;99.90;;;;;;5073140;28;19969;-61
2022/12/08 05:05:34;;;;;;;20.75;10.00;;;-0.90;99.90;;;;;;5066726;28;20028;-61
2022/12/08 05:07:59;;;;;;;13.80;8.38;;;-0.90;99.90;;;;;;5071666;28;20039;-61
2022/12/08 05:10:25;;;;;;;17.83;8.90;;;-0.90;99.90;;;;;;5070586;28;20385;-62
2022/12/08 05:12:51;;;;;;;19.67;9.82;;;-0.80;99.90;;;;;;5071299;28;20452;-62
2022/12/08 05:15:17;;;;;;;15.05;8.32;;;-0.90;99.90;;;;;;5065396;28;20032;-62
2022/12/08 05:17:43;;;;;;;18.23;9.40;;;-0.90;99.90;;;;;;5070036;28;20098;-62
2022/12/08 05:20:09;;;;;;;21.98;9.43;;;-0.90;99.90;;;;;;5073210;28;20021;-62
2022/12/08 05:22:35;;;;;;;16.90;9.15;;;-0.90;99.90;;;;;;5070444;28;20076;-62
2022/12/08 05:25:01;;;;;;;16.35;9.63;;;-0.80;99.90;;;;;;5065417;28;20464;-62
2022/12/08 05:27:27;;;;;;;17.35;8.82;;;-0.80;99.90;;;;;;5069119;28;20194;-61
2022/12/08 05:29:52;;;;;;;18.63;8.65;;;-0.80;99.90;;;;;;5076449;28;20460;-61
2022/12/08 05:32:19;;;;;;;13.40;7.88;;;-0.80;99.90;;;;;;5068590;28;20044;-61
2022/12/08 05:34:44;;;;;;;14.07;8.32;;;-0.80;99.90;;;;;;5071502;28;20039;-62
2022/12/08 05:37:10;;;;;;;13.15;7.95;;;-0.80;99.90;;;;;;5070930;28;20063;-61
2022/12/08 05:39:36;;;;;;;28.83;19.52;;;-0.80;99.90;;;;;;5069237;28;20025;-61
2022/12/08 05:42:02;;;;;;;19.00;9.32;;;-0.80;99.90;;;;;;5067083;28;20033;-61
2022/12/08 05:44:27;;;;;;;19.38;9.07;;;-0.70;99.90;;;;;;5079599;28;20079;-61
2022/12/08 05:46:53;;;;;;;14.27;8.93;;;-0.80;99.90;;;;;;5066990;28;20012;-62
2022/12/08 05:49:19;;;;;;;17.45;9.23;;;-0.70;99.90;;;;;;5069608;28;20456;-61
2022/12/08 05:51:45;;;;;;;14.55;8.15;;;-0.80;99.90;;;;;;5072796;28;20049;-62
2022/12/08 05:54:11;;;;;;;16.15;9.18;;;-0.70;99.90;;;;;;5071461;28;20068;-61
2022/12/08 05:56:36;;;;;;;14.95;8.65;;;-0.80;99.90;;;;;;5064299;28;20528;-61
2022/12/08 05:59:05;;;;;;;16.25;9.07;;;-0.80;99.90;;;;;;5065849;28;20391;-63
2022/12/08 06:01:31;;;;;;;16.63;8.32;;;-0.80;99.90;;;;;;5069187;28;20549;-62
2022/12/08 06:03:59;;;;;;;19.95;8.73;;;-0.80;99.90;;;;;;5073225;28;20120;-62
2022/12/08 06:06:25;;;;;;;17.25;8.52;;;-0.80;99.90;;;;;;5069247;28;20032;-62
2022/12/08 06:08:51;;;;;;;18.60;10.25;;;-0.90;99.90;;;;;;5070465;28;20029;-62
2022/12/08 06:11:26;;;;;;;18.48;9.85;;;-0.90;99.90;;;;;;5067831;28;20162;-62
2022/12/08 06:13:53;;;;;;;18.63;9.13;;;-0.90;99.90;;;;;;5066100;28;20117;-61
2022/12/08 06:16:20;;;;;;;18.13;9.63;;;-1.00;99.90;;;;;;5070432;28;20047;-62
2022/12/08 06:18:46;;;;;;;21.05;10.80;;;-1.00;99.90;;;;;;5074122;28;20026;-60
2022/12/08 06:21:13;;;;;;;17.60;10.05;;;-1.00;99.90;;;;;;5071407;28;20396;-61
2022/12/08 06:23:39;;;;;;;15.90;9.82;;;-1.00;99.90;;;;;;5069267;28;20987;-62
2022/12/08 06:26:08;;;;;;;18.30;8.85;;;-1.00;99.90;;;;;;5073593;28;20028;-61
2022/12/08 06:28:36;;;;;;;16.05;8.52;;;-1.00;99.90;;;;;;5069062;28;20114;-61
2022/12/08 06:31:16;;;;;;;18.98;9.45;;;-1.00;99.90;;;;;;5071905;28;20030;-61
2022/12/08 06:33:43;;;;;;;19.25;10.55;;;-1.00;99.90;;;;;;5066867;28;20036;-61
2022/12/08 06:36:11;;;;;;;17.73;9.73;;;-1.00;99.90;;;;;;5069589;28;20039;-60
2022/12/08 06:38:37;;;;;;;18.13;10.13;;;-1.10;99.90;;;;;;5066800;28;20476;-61
2022/12/08 06:41:04;;;;;;;18.80;10.27;;;-1.20;99.90;;;;;;5067417;28;20039;-60
2022/12/08 06:43:32;;;;;;;20.33;10.00;;;-1.20;99.90;;;;;;5058946;28;20111;-62
2022/12/08 06:45:58;;;;;;;16.42;10.18;;;-1.10;99.90;;;;;;5070535;28;20020;-62
2022/12/08 06:48:23;;;;;;;21.10;10.27;;;-1.10;99.90;;;;;;5062148;28;20115;-61
2022/12/08 06:50:49;;;;;;;18.45;11.20;;;-1.10;99.90;;;;;;5069944;28;20100;-61
2022/12/08 06:53:16;;;;;;;19.67;10.20;;;-1.00;99.90;;;;;;5069602;28;20029;-63
2022/12/08 06:55:52;;;;;;;20.75;9.82;;;-1.00;99.90;;;;;;5062878;28;20036;-61
2022/12/08 06:58:18;;;;;;;20.90;10.73;;;-1.10;99.90;;;;;;5063918;28;20036;-62
2022/12/08 07:00:45;;;;;;;20.25;9.57;;;-1.10;99.90;;;;;;5063433;28;20091;-61
2022/12/08 07:03:12;;;;;;;16.75;9.27;;;-1.10;99.90;;;;;;5065288;28;20028;-61
2022/12/08 07:05:38;;;;;;;16.90;9.27;;;-1.10;99.90;;;;;;5064730;28;20024;-62
2022/12/08 07:08:06;;;;;;;16.75;9.93;;;-1.10;99.90;;;;;;5066852;28;20036;-61
2022/12/08 07:10:32;;;;;;;15.60;9.05;;;-1.00;99.90;;;;;;5062599;28;20051;-63
2022/12/08 07:12:58;;;;;;;20.00;9.80;;;-1.00;99.90;;;;;;5074285;28;20028;-62
2022/12/08 07:15:24;;;;;;;16.80;8.63;;;-1.10;99.90;;;;;;5079315;28;20031;-62
2022/12/08 07:17:51;;;;;;;20.00;9.25;;;-1.00;99.90;;;;;;5078179;28;20508;-62
2022/12/08 07:20:17;;;;;;;19.52;9.05;;;-1.10;99.90;;;;;;5073927;28;20089;-61
2022/12/08 07:22:50;;;;;;;18.95;9.65;;;-1.00;99.90;;;;;;5066648;28;20045;-61
2022/12/08 07:25:16;;;;;;;16.10;8.23;;;-0.90;99.90;;;;;;5076069;28;20092;-62
2022/12/08 07:27:42;;;;;;;15.60;8.43;;;-0.90;99.90;;;;;;5071644;28;20028;-62
2022/12/08 07:30:08;;;;;;;15.20;8.38;;;-0.90;99.90;;;;;;5075053;28;20025;-62
2022/12/08 07:32:35;;;;;;;16.92;9.82;;;-0.90;99.90;;;;;;5071028;28;20039;-62
2022/12/08 07:35:01;;;;;;;17.10;8.43;;;-0.90;99.90;;;;;;5078237;28;20037;-62
2022/12/08 07:37:26;;;;;;;19.52;9.38;;;-0.80;99.90;;;;;;5072437;28;20044;-62
2022/12/08 07:39:52;;;;;;;19.75;9.43;;;-0.70;99.90;;;;;;5073422;28;20027;-61
2022/12/08 07:42:18;;;;;;;16.00;8.60;;;-0.80;99.90;;;;;;5076693;28;20040;-62
2022/12/08 07:44:44;;;;;;;18.92;9.13;;;-0.70;99.90;;;;;;5074514;28;20077;-61
2022/12/08 07:47:10;;;;;;;16.83;7.43;;;-0.80;99.90;;;;;;5076731;28;20063;-62
2022/12/08 07:49:35;;;;;;;12.63;7.38;;;-0.70;99.90;;;;;;5075522;28;20029;-62
2022/12/08 07:52:01;;;;;;;18.60;8.30;;;-0.70;99.90;;;;;;5074320;28;20028;-62
2022/12/08 07:54:27;;;;;;;14.77;7.63;;;-0.70;99.90;;;;;;5071043;28;20468;-63
2022/12/08 07:56:55;;;;;;;14.27;7.90;;;-0.70;99.90;;;;;;5072088;28;20056;-61
2022/12/08 07:59:21;;;;;;;18.23;8.57;;;-0.70;99.90;;;;;;5075250;28;20116;-62
2022/12/08 08:01:51;;;;;;;15.00;7.55;;;-0.70;99.90;;;;;;5063535;28;20123;-62
2022/12/08 08:04:17;;;;;;;16.02;8.02;;;-0.70;99.90;;;;;;5065344;28;20124;-63
2022/12/08 08:06:42;;;;;;;13.73;7.50;;;-0.60;99.90;;;;;;5074538;28;20032;-65
2022/12/08 08:09:09;;;;;;;16.23;9.30;;;-0.60;99.90;;;;;;5078146;28;20031;-62
2022/12/08 08:11:35;;;;;;;15.52;8.35;;;-0.60;99.90;;;;;;5068045;28;20396;-62
2022/12/08 08:14:01;;;;;;;15.52;7.90;;;-0.60;99.90;;;;;;5072203;28;20348;-63
2022/12/08 08:16:27;;;;;;;13.07;7.45;;;-0.50;99.90;;;;;;5070903;28;20492;-62
2022/12/08 08:18:53;;;;;;;14.60;7.38;;;-0.50;99.90;;;;;;5070264;28;20039;-64
2022/12/08 08:21:20;;;;;;;11.95;8.95;;;-0.50;99.90;;;;;;5068822;28;20476;-64
2022/12/08 08:23:46;;;;;;;13.98;7.93;;;-0.40;99.90;;;;;;5065421;28;20360;-62
2022/12/08 08:26:12;;;;;;;16.63;8.23;;;-0.50;99.90;;;;;;5070885;28;20028;-61
2022/12/08 08:28:38;;;;;;;16.55;7.68;;;-0.50;99.90;;;;;;5070430;28;20029;-61
2022/12/08 08:31:04;;;;;;;13.27;7.85;;;-0.40;99.90;;;;;;5072226;28;20111;-64
2022/12/08 08:33:30;;;;;;;15.90;8.73;;;-0.40;99.90;;;;;;5067648;28;20037;-61
2022/12/08 08:35:56;;;;;;;19.88;8.75;;;-0.40;99.90;;;;;;5068647;28;20059;-62
2022/12/08 08:38:22;;;;;;;18.27;9.68;;;-0.40;99.90;;;;;;5070263;28;20531;-62
2022/12/08 08:40:48;;;;;;;16.60;8.63;;;-0.40;99.90;;;;;;5071991;28;20373;-61
2022/12/08 08:43:27;;;;;;;20.20;9.60;;;-0.40;99.90;;;;;;5072139;28;20036;-63
2022/12/08 08:45:58;;;;;;;177.05;65.32;;;-0.30;99.90;;;;;;5069084;28;20126;-62
2022/12/08 08:48:28;;;;;;;73.22;26.13;;;-0.40;99.90;;;;;;5068768;28;20055;-61
2022/12/08 08:50:55;;;;;;;45.95;18.08;;;-0.30;99.90;;;;;;5072548;28;20095;-62
2022/12/08 08:53:22;;;;;;;42.15;19.10;;;-0.30;99.90;;;;;;5070147;28;20029;-61
2022/12/08 08:55:49;;;;;;;47.22;20.80;;;-0.30;99.90;;;;;;5070205;28;20107;-61
2022/12/08 08:58:15;;;;;;;19.48;9.38;;;-0.30;99.90;;;;;;5071023;28;20037;-62
2022/12/08 09:00:41;;;;;;;16.15;7.72;;;-0.30;99.90;;;;;;5070007;28;20112;-62
2022/12/08 09:03:07;;;;;;;17.58;10.10;;;-0.30;99.90;;;;;;5070312;28;20456;-63
2022/12/08 09:05:32;;;;;;;12.65;7.45;;;-0.30;99.90;;;;;;5070214;28;20345;-63
2022/12/08 09:07:58;;;;;;;13.30;7.82;;;-0.20;99.90;;;;;;5061256;28;20060;-62
2022/12/08 09:10:24;;;;;;;12.60;7.20;;;-0.30;99.90;;;;;;5063979;28;20119;-63
2022/12/08 09:12:50;;;;;;;14.50;7.90;;;-0.30;99.90;;;;;;5064061;28;20025;-63
2022/12/08 09:15:16;;;;;;;14.13;7.18;;;-0.30;99.90;;;;;;5063159;28;20027;-63
2022/12/08 09:17:42;;;;;;;15.55;7.38;;;-0.20;99.90;;;;;;5061362;28;20036;-64
2022/12/08 09:20:08;;;;;;;13.32;7.18;;;-0.30;99.90;;;;;;5068354;28;20028;-64
2022/12/08 09:22:33;;;;;;;14.00;8.63;;;-0.20;99.90;;;;;;5063356;28;20067;-62
2022/12/08 09:24:59;;;;;;;12.32;7.28;;;-0.20;99.90;;;;;;5060398;28;20150;-62
2022/12/08 09:27:25;;;;;;;12.00;6.80;;;-0.20;99.90;;;;;;5063396;28;20036;-62
2022/12/08 09:29:51;;;;;;;15.20;7.75;;;-0.20;99.90;;;;;;5072324;28;20535;-62
2022/12/08 09:32:16;;;;;;;11.05;6.90;;;-0.20;99.90;;;;;;5075640;28;20131;-62
2022/12/08 09:34:42;;;;;;;13.07;6.25;;;-0.10;99.90;;;;;;5066781;28;20545;-62
2022/12/08 09:37:08;;;;;;;12.02;6.60;;;-0.10;99.90;;;;;;5068055;28;20033;-61
2022/12/08 09:39:34;;;;;;;15.30;7.68;;;-0.10;99.90;;;;;;5069704;28;20508;-61
2022/12/08 09:42:05;;;;;;;16.20;7.80;;;0.00;99.90;;;;;;5057502;28;20445;-62
2022/12/08 09:44:46;;;;;;;12.77;6.97;;;0.00;99.90;;;;;;5054794;28;20029;-63
2022/12/08 09:47:52;;;;;;;16.83;7.65;;;0.10;99.90;;;;;;5057033;28;20033;-61
2022/12/08 09:50:58;;;;;;;15.35;8.30;;;0.10;99.90;;;;;;5069129;28;20044;-62
2022/12/08 09:53:29;;;;;;;13.35;7.07;;;0.10;99.90;;;;;;5064785;28;20036;-60
2022/12/08 09:56:14;;;;;;;16.50;7.60;;;0.10;99.90;;;;;;5067533;28;20024;-61
2022/12/08 09:58:58;;;;;;;13.80;7.15;;;0.20;99.90;;;;;;5055567;28;20035;-61
2022/12/08 10:01:33;;;;;;;13.20;6.85;;;0.20;99.90;;;;;;5068372;28;20464;-62
2022/12/08 10:03:59;;;;;;;13.35;6.90;;;0.20;99.90;;;;;;5071989;28;20028;-62
2022/12/08 10:06:37;;;;;;;16.55;7.25;;;0.20;99.90;;;;;;5063881;28;20032;-62
2022/12/08 10:09:18;;;;;;;13.23;6.63;;;0.30;99.90;;;;;;5062258;28;20028;-62
2022/12/08 10:11:56;;;;;;;20.70;7.60;;;0.30;99.90;;;;;;5066831;28;20028;-62
2022/12/08 10:14:42;;;;;;;14.88;7.00;;;0.40;99.90;;;;;;5061992;28;20376;-61
2022/12/08 10:17:20;;;;;;;13.38;6.20;;;0.40;99.90;;;;;;5063447;28;20041;-62
2022/12/08 10:19:48;;;;;;;14.07;7.55;;;0.40;99.90;;;;;;5061610;28;20021;-62
2022/12/08 10:22:23;;;;;;;17.98;7.22;;;0.50;99.90;;;;;;5055586;28;20075;-61
2022/12/08 10:25:00;;;;;;;14.52;7.40;;;0.40;99.90;;;;;;5066592;28;20025;-62
2022/12/08 10:27:26;;;;;;;12.93;7.63;;;0.50;99.90;;;;;;5052373;28;20029;-63
2022/12/08 10:29:52;;;;;;;13.93;7.70;;;0.60;99.90;;;;;;5065555;28;20119;-63
2022/12/08 10:32:21;;;;;;;11.68;6.72;;;0.60;99.90;;;;;;5058953;28;20438;-60
2022/12/08 10:35:11;;;;;;;14.75;7.75;;;0.60;99.90;;;;;;5061986;28;20079;-62
2022/12/08 10:37:37;;;;;;;12.40;7.40;;;0.70;99.90;;;;;;5054847;28;20522;-62
2022/12/08 10:40:12;;;;;;;16.88;6.65;;;0.70;99.90;;;;;;5053695;28;20021;-61
2022/12/08 10:42:54;;;;;;;13.23;8.07;;;0.80;99.90;;;;;;5051761;28;20029;-61
2022/12/08 10:45:20;;;;;;;26.00;11.68;;;0.80;99.90;;;;;;5063007;28;20561;-61
2022/12/08 10:48:03;;;;;;;17.63;9.00;;;0.80;99.90;;;;;;5059664;28;20029;-63
2022/12/08 10:50:28;;;;;;;12.10;7.20;;;0.90;99.90;;;;;;5064344;28;20078;-63
2022/12/08 10:52:56;;;;;;;13.90;6.72;;;1.00;99.90;;;;;;5073877;28;20028;-62
2022/12/08 10:55:22;;;;;;;14.25;6.82;;;1.00;99.90;;;;;;5067899;28;20025;-63
2022/12/08 10:57:48;;;;;;;13.18;7.40;;;1.00;99.90;;;;;;5068485;28;20122;-62
2022/12/08 11:00:22;;;;;;;15.85;7.55;;;1.00;99.90;;;;;;5070029;28;20476;-62
2022/12/08 11:02:54;;;;;;;13.35;7.28;;;1.00;99.90;;;;;;5069548;28;20141;-62
2022/12/08 11:05:24;;;;;;;17.08;7.85;;;1.00;99.90;;;;;;5064422;28;20032;-62
2022/12/08 11:07:53;;;;;;;11.63;6.53;;;1.00;99.90;;;;;;5064695;28;20064;-63
2022/12/08 11:10:26;;;;;;;17.63;7.82;;;1.10;99.90;;;;;;5069755;28;20036;-60
2022/12/08 11:12:52;;;;;;;10.38;6.38;;;1.00;99.90;;;;;;5069669;28;20465;-62
2022/12/08 11:15:18;;;;;;;14.38;7.20;;;1.20;99.90;;;;;;5069293;28;20194;-62
2022/12/08 11:17:46;;;;;;;13.07;6.70;;;1.20;99.90;;;;;;5066711;28;20499;-61
2022/12/08 11:20:12;;;;;;;14.80;7.43;;;1.30;99.90;;;;;;5068838;28;20572;-63
2022/12/08 11:22:43;;;;;;;19.45;8.52;;;1.40;99.90;;;;;;5067106;28;20094;-63
2022/12/08 11:25:10;;;;;;;16.55;6.97;;;1.60;99.90;;;;;;5074623;28;20035;-62
2022/12/08 11:27:47;;;;;;;17.50;7.18;;;1.90;99.90;;;;;;5068795;28;20354;-60
2022/12/08 11:30:24;;;;;;;11.85;6.50;;;2.00;99.90;;;;;;5060478;28;20114;-64
2022/12/08 11:32:57;;;;;;;14.75;7.25;;;2.20;99.90;;;;;;5058866;28;20048;-62
2022/12/08 11:35:31;;;;;;;11.40;6.50;;;2.30;99.90;;;;;;5071111;28;20481;-61
2022/12/08 11:38:27;;;;;;;16.65;7.15;;;2.40;99.90;;;;;;5061623;28;20397;-62
2022/12/08 11:40:58;;;;;;;13.38;7.95;;;2.60;99.90;;;;;;5055231;28;20081;-62
2022/12/08 11:43:33;;;;;;;15.02;8.80;;;3.20;99.90;;;;;;5054418;28;20060;-62
2022/12/08 11:46:03;;;;;;;12.10;6.32;;;4.10;99.90;;;;;;5064781;28;20126;-63
2022/12/08 11:48:40;;;;;;;46.92;8.77;;;4.50;99.90;;;;;;5058628;28;20029;-62
2022/12/08 11:51:29;;;;;;;9.52;6.07;;;5.20;99.90;;;;;;5067077;28;20059;-61
2022/12/08 11:54:28;;;;;;;17.00;6.18;;;5.50;99.90;;;;;;5065888;28;20039;-62
2022/12/08 11:56:57;;;;;;;16.10;6.32;;;5.80;99.90;;;;;;5061234;28;20032;-63
2022/12/08 11:59:40;;;;;;;33.42;8.75;;;6.00;99.90;;;;;;5064223;28;20103;-62
2022/12/08 12:02:28;;;;;;;13.95;6.65;;;6.10;99.90;;;;;;5061125;28;20033;-63
2022/12/08 12:05:19;;;;;;;11.00;5.90;;;6.20;99.90;;;;;;5066087;28;20012;-64
2022/12/08 12:07:57;;;;;;;13.65;6.78;;;6.10;99.90;;;;;;5061302;28;20035;-64
2022/12/08 12:10:51;;;;;;;7.88;5.50;;;6.40;99.90;;;;;;5064718;28;20699;-62
2022/12/08 12:13:32;;;;;;;10.30;6.72;;;6.50;99.90;;;;;;5070007;28;20032;-63
2022/12/08 12:16:10;;;;;;;11.45;6.28;;;6.70;99.90;;;;;;5068372;28;20392;-63
2022/12/08 12:18:45;;;;;;;12.52;5.85;;;6.90;99.90;;;;;;5068601;28;20506;-62
2022/12/08 12:21:29;;;;;;;15.50;7.55;;;6.80;99.90;;;;;;5068715;28;20499;-62
2022/12/08 12:24:04;;;;;;;29.23;7.00;;;6.90;99.90;;;;;;5075591;28;20127;-61
2022/12/08 12:26:36;;;;;;;10.32;6.28;;;6.80;99.90;;;;;;5065281;28;20492;-63
2022/12/08 12:29:14;;;;;;;;;;;7.00;99.90;;;;;;5065822;28;20033;-62
2022/12/08 12:31:46;;;;;;;39.47;9.32;;;6.90;99.90;;;;;;5068246;28;19912;-63
2022/12/08 12:34:47;;;;;;;13.10;6.22;;;7.30;99.90;;;;;;5070578;28;20036;-62
2022/12/08 12:37:17;;;;;;;12.23;5.82;;;6.90;99.90;;;;;;5066012;28;20071;-62
2022/12/08 12:39:48;;;;;;;8.93;5.68;;;7.20;99.90;;;;;;5062625;28;20025;-62
2022/12/08 12:42:56;;;;;;;11.73;6.88;;;7.30;99.90;;;;;;5064954;28;20020;-63
2022/12/08 12:45:30;;;;;;;13.18;6.78;;;7.40;99.90;;;;;;5041095;28;20504;-62
2022/12/08 12:47:56;;;;;;;36.70;7.78;;;7.50;99.90;;;;;;5043789;28;20160;-62
2022/12/08 12:50:34;;;;;;;17.48;6.60;;;7.50;99.90;;;;;;5046393;28;20036;-63
2022/12/08 12:53:01;;;;;;;24.48;7.10;;;7.60;99.90;;;;;;5045696;28;20033;-62
2022/12/08 12:55:49;;;;;;;15.40;6.25;;;7.50;99.90;;;;;;5051519;28;20524;-62
2022/12/08 12:58:26;;;;;;;12.35;6.03;;;7.50;99.90;;;;;;5047741;28;20036;-62
2022/12/08 13:01:43;;;;;;;19.63;6.43;;;7.70;99.90;;;;;;5047511;28;20033;-63